Time;durP1;ratioP1;P1;durP2;ratioP2;P2;SDS_P1;SDS_P2;PMS_P1;PMS_P2;Temp;Humidity;BMP_temperature;BMP_pressure;BME280_temperature;BME280_humidity;BME280_pressure;Samples;Min_cycle;Max_cycle;Signal;HPM_P1;HPM_P2
2022/06/12 00:00:28;;;;;;;7.68;2.08;;;;;;;12.63;100.00;102252.25;4950012;29;20027;-67
2022/06/12 00:02:55;;;;;;;6.40;1.77;;;;;;;12.60;100.00;102253.88;4950256;29;20038;-69
2022/06/12 00:05:22;;;;;;;4.97;2.08;;;;;;;12.58;100.00;102252.00;4949993;29;20131;-68
2022/06/12 00:07:47;;;;;;;6.93;2.05;;;;;;;12.56;100.00;102254.53;4950222;29;20086;-68
2022/06/12 00:10:13;;;;;;;5.38;1.95;;;;;;;12.54;100.00;102247.50;4950154;29;20479;-68
2022/06/12 00:12:41;;;;;;;6.57;1.88;;;;;;;12.51;100.00;102252.53;4949848;29;20054;-67
2022/06/12 00:15:08;;;;;;;3.17;1.55;;;;;;;12.49;100.00;102249.88;4950032;29;20479;-67
2022/06/12 00:17:33;;;;;;;6.47;1.80;;;;;;;12.46;100.00;102254.94;4949787;29;20163;-68
2022/06/12 00:19:59;;;;;;;7.65;2.15;;;;;;;12.43;100.00;102250.47;4949751;29;20114;-67
2022/06/12 00:22:24;;;;;;;5.68;1.90;;;;;;;12.40;100.00;102241.63;4949711;29;20054;-68
2022/06/12 00:24:49;;;;;;;6.18;2.03;;;;;;;12.36;100.00;102246.69;4949693;29;20023;-68
2022/06/12 00:27:15;;;;;;;7.22;2.15;;;;;;;12.38;100.00;102246.78;4949780;29;20023;-68
2022/06/12 00:29:42;;;;;;;6.00;2.13;;;;;;;12.35;100.00;102251.84;4949158;29;20031;-68
2022/06/12 00:32:14;;;;;;;8.80;2.38;;;;;;;12.30;100.00;102249.03;4949966;29;20024;-67
2022/06/12 00:34:49;;;;;;;6.40;2.33;;;;;;;12.22;100.00;102240.84;4950082;28;20399;-68
2022/06/12 00:37:17;;;;;;;7.38;2.45;;;;;;;12.19;100.00;102245.91;4953520;29;20395;-68
2022/06/12 00:39:44;;;;;;;6.55;2.58;;;;;;;12.18;100.00;102241.53;4953006;29;20427;-67
2022/06/12 00:42:24;;;;;;;9.32;2.95;;;;;;;12.15;100.00;102237.88;4953632;29;20597;-67
2022/06/12 00:44:52;;;;;;;8.23;3.08;;;;;;;12.13;100.00;102241.31;4953778;28;20511;-67
2022/06/12 00:47:18;;;;;;;8.45;3.25;;;;;;;12.12;100.00;102243.84;4953253;29;20046;-68
2022/06/12 00:50:03;;;;;;;7.30;3.95;;;;;;;12.10;100.00;102240.28;4953525;29;20027;-67
2022/06/12 00:52:41;;;;;;;6.97;3.00;;;;;;;12.09;100.00;102243.63;4953113;29;20051;-67
2022/06/12 00:55:14;;;;;;;6.22;3.33;;;;;;;12.07;100.00;102248.75;4953149;29;20027;-67
2022/06/12 00:57:40;;;;;;;5.95;3.55;;;;;;;12.07;100.00;102242.69;4952807;29;20062;-68
2022/06/12 01:00:11;;;;;;;8.18;3.50;;;;;;;12.01;100.00;102257.19;4952859;29;20069;-67
2022/06/12 01:02:37;;;;;;;9.48;3.47;;;;;;;11.95;100.00;102249.06;4952350;29;20039;-68
2022/06/12 01:07:55;;;;;;;6.90;3.70;;;;;;;11.86;100.00;102251.22;4953603;29;20141;-67
2022/06/12 01:10:23;;;;;;;9.55;3.95;;;;;;;11.82;100.00;102244.09;4952700;29;20476;-68
2022/06/12 01:12:56;;;;;;;11.43;4.28;;;;;;;11.78;100.00;102240.47;4952397;29;20031;-67
2022/06/12 01:15:29;;;;;;;8.70;3.97;;;;;;;11.79;100.00;102243.94;4952444;29;20399;-67
2022/06/12 01:17:57;;;;;;;7.45;4.07;;;;;;;11.75;100.00;102248.06;4952562;29;20058;-67
2022/06/12 01:20:32;;;;;;;7.30;3.80;;;;;;;11.71;100.00;102240.97;4952337;29;20056;-67
2022/06/12 01:23:25;;;;;;;8.85;4.20;;;;;;;11.67;100.00;102247.72;4952180;29;20240;-68
2022/06/12 01:26:10;;;;;;;8.80;3.67;;;;;;;11.63;100.00;102245.78;4952683;29;20038;-68
2022/06/12 01:28:41;;;;;;;5.43;3.40;;;;;;;11.62;100.00;102244.00;4952612;29;20035;-67
2022/06/12 01:31:16;;;;;;;7.90;3.55;;;;;;;11.58;100.00;102244.66;4952623;29;20023;-68
2022/06/12 01:34:15;;;;;;;10.15;4.50;;;;;;;11.59;100.00;102254.22;4952410;29;20023;-67
2022/06/12 01:36:46;;;;;;;8.68;3.88;;;;;;;11.56;100.00;102247.16;4951943;29;20111;-68
2022/06/12 01:39:15;;;;;;;8.10;4.07;;;;;;;11.50;100.00;102252.94;4952585;29;20027;-67
2022/06/12 01:42:08;;;;;;;9.48;4.10;;;;;;;11.43;100.00;102243.06;4952069;29;20031;-68
2022/06/12 01:45:15;;;;;;;9.95;4.03;;;;;;;11.37;100.00;102235.84;4951968;29;20456;-67
2022/06/12 01:47:43;;;;;;;8.18;3.92;;;;;;;11.34;100.00;102229.59;4951923;29;20042;-68
2022/06/12 01:50:17;;;;;;;5.72;3.13;;;;;;;11.31;100.00;102232.06;4952173;29;20019;-68
2022/06/12 01:53:05;;;;;;;9.70;3.97;;;;;;;11.27;100.00;102229.31;4951937;29;20019;-68
2022/06/12 01:55:51;;;;;;;8.80;3.53;;;;;;;11.23;100.00;102231.63;4951456;28;20073;-68
2022/06/12 01:58:45;;;;;;;9.75;3.92;;;;;;;11.20;100.00;102231.50;4952220;29;20482;-67
2022/06/12 02:01:35;;;;;;;11.70;3.95;;;;;;;11.16;100.00;102231.34;4951584;29;20023;-67
2022/06/12 02:04:08;;;;;;;9.10;3.63;;;;;;;11.11;100.00;102226.72;4951345;29;20039;-68
2022/06/12 02:06:51;;;;;;;9.05;3.60;;;;;;;11.08;100.00;102226.56;4951941;29;20042;-68
2022/06/12 02:09:32;;;;;;;13.40;3.80;;;;;;;11.07;100.00;102224.78;4951747;29;20042;-67
2022/06/12 02:15:00;;;;;;;6.57;3.28;;;;;;;11.04;100.00;102236.75;4951504;29;20488;-68
2022/06/12 02:17:32;;;;;;;9.10;3.05;;;;;;;11.02;100.00;102232.31;4951859;29;20022;-67
2022/06/12 02:19:59;;;;;;;8.10;3.28;;;;;;;10.98;100.00;102231.25;4951574;29;20035;-68
2022/06/12 02:22:28;;;;;;;8.23;3.35;;;;;;;10.99;100.00;102240.81;4951565;29;20047;-67
2022/06/12 02:25:00;;;;;;;8.77;3.05;;;;;;;10.98;100.00;102241.66;4951636;29;20031;-67
2022/06/12 02:27:35;;;;;;;8.45;3.33;;;;;;;10.95;100.00;102243.19;4951682;29;20274;-67
2022/06/12 02:30:07;;;;;;;7.03;3.55;;;;;;;10.90;100.00;102241.22;4951046;29;20499;-68
2022/06/12 02:32:45;;;;;;;8.40;3.20;;;;;;;10.86;100.00;102235.81;4951666;29;20049;-67
2022/06/12 02:35:18;;;;;;;9.90;3.03;;;;;;;10.82;100.00;102229.56;4951431;29;20404;-67
2022/06/12 02:37:54;;;;;;;11.05;3.80;;;;;;;10.78;100.00;102228.50;4951329;29;20027;-67
2022/06/12 02:40:29;;;;;;;11.48;3.78;;;;;;;10.74;100.00;102223.09;4950685;29;20027;-68
2022/06/12 02:42:58;;;;;;;9.38;4.35;;;;;;;10.72;100.00;102227.28;4951374;29;20035;-67
2022/06/12 02:45:33;;;;;;;6.25;3.63;;;;;;;10.69;100.00;102228.91;4951110;29;20035;-67
2022/06/12 02:48:00;;;;;;;12.27;4.40;;;;;;;10.65;100.00;102226.94;4950747;29;20458;-68
2022/06/12 02:50:30;;;;;;;10.15;4.20;;;;;;;10.65;100.00;102218.31;4951183;29;20041;-67
2022/06/12 02:53:08;;;;;;;8.00;3.67;;;;;;;10.60;100.00;102218.03;4951107;29;20468;-67
2022/06/12 02:55:47;;;;;;;8.57;3.92;;;;;;;10.61;100.00;102218.94;4951170;29;20038;-67
2022/06/12 02:58:41;;;;;;;7.45;3.58;;;;;;;10.66;100.00;102222.66;4950150;28;20324;-67
2022/06/12 03:01:13;;;;;;;6.22;3.78;;;;;;;10.68;100.00;102211.59;4950976;29;20035;-67
2022/06/12 03:04:16;;;;;;;10.52;4.10;;;;;;;10.73;100.00;102213.50;4951023;29;20027;-68
2022/06/12 03:06:42;;;;;;;13.27;4.25;;;;;;;10.74;100.00;102216.19;4953722;28;20439;-68
2022/06/12 03:09:08;;;;;;;12.10;3.75;;;;;;;10.77;100.00;102213.78;4949169;29;20039;-68
2022/06/12 03:11:37;;;;;;;11.02;3.80;;;;;;;10.79;100.00;102216.44;4949344;29;20022;-67
2022/06/12 03:14:08;;;;;;;10.35;3.88;;;;;;;10.80;100.00;102215.63;4948784;29;20535;-68
2022/06/12 03:16:37;;;;;;;8.20;3.38;;;;;;;10.81;100.00;102218.28;4948572;29;20149;-67
2022/06/12 03:19:28;;;;;;;10.60;3.60;;;;;;;10.84;100.00;102219.28;4949262;29;20122;-67
2022/06/12 03:22:08;;;;;;;7.10;3.88;;;;;;;10.85;100.00;102223.66;4948403;29;20603;-67
2022/06/12 03:24:54;;;;;;;8.90;4.10;;;;;;;10.87;100.00;102222.91;4949627;29;20046;-67
2022/06/12 03:27:37;;;;;;;10.10;4.10;;;;;;;10.89;100.00;102223.91;4950294;29;20031;-68
2022/06/12 03:30:28;;;;;;;10.60;4.30;;;;;;;10.92;100.00;102230.94;4950249;29;20122;-67
2022/06/12 03:33:12;;;;;;;9.50;4.22;;;;;;;10.96;100.00;102227.69;4950494;29;20107;-68
2022/06/12 03:36:03;;;;;;;9.27;3.58;;;;;;;11.00;100.00;102224.47;4950100;29;20400;-67
2022/06/12 03:38:46;;;;;;;10.20;4.20;;;;;;;11.05;100.00;102227.28;4950318;29;20027;-67
2022/06/12 03:41:20;;;;;;;9.70;3.58;;;;;;;11.09;100.00;102223.16;4950551;29;20028;-67
2022/06/12 03:44:00;;;;;;;11.88;3.97;;;;;;;11.12;100.00;102225.91;4950528;29;20046;-67
2022/06/12 03:46:30;;;;;;;10.75;4.50;;;;;;;11.14;100.00;102225.19;4950175;29;20042;-67
2022/06/12 03:49:16;;;;;;;11.35;3.97;;;;;;;11.19;100.00;102225.41;4950348;29;20046;-67
2022/06/12 03:51:51;;;;;;;9.77;3.80;;;;;;;11.23;100.00;102229.06;4949789;29;20027;-68
2022/06/12 03:54:40;;;;;;;11.18;4.90;;;;;;;11.26;100.00;102226.63;4950192;29;20031;-68
2022/06/12 04:00:17;;;;;;;11.45;4.85;;;;;;;11.33;100.00;102225.25;4950539;29;20050;-67
2022/06/12 04:03:21;;;;;;;12.40;4.57;;;;;;;11.37;100.00;102230.66;4949186;29;20468;-68
2022/06/12 04:06:09;;;;;;;10.80;4.72;;;;;;;11.42;100.00;102230.91;4941581;29;20042;-68
2022/06/12 04:08:48;;;;;;;9.05;4.28;;;;;;;11.49;100.00;102232.09;4932861;28;20023;-68
2022/06/12 04:11:16;;;;;;;11.75;4.82;;;;;;;11.50;100.00;102232.19;4952941;29;20046;-68
2022/06/12 04:13:43;;;;;;;10.00;5.13;;;;;;;11.53;100.00;102227.13;4953480;29;20042;-68
2022/06/12 04:16:17;;;;;;;12.80;4.68;;;;;;;11.56;100.00;102226.41;4953649;29;20107;-68
2022/06/12 04:18:43;;;;;;;8.30;4.60;;;;;;;11.59;100.00;102223.06;4953714;29;20059;-67
2022/06/12 04:21:37;;;;;;;11.10;4.80;;;;;;;11.62;100.00;102228.41;4953379;29;20051;-67
2022/06/12 04:24:22;;;;;;;8.15;4.22;;;;;;;11.68;100.00;102230.41;4951308;28;20063;-67
2022/06/12 04:26:58;;;;;;;9.02;4.47;;;;;;;11.71;100.00;102228.84;4953664;29;20484;-67
2022/06/12 04:29:28;;;;;;;8.65;4.35;;;;;;;11.71;100.00;102236.66;4953732;29;20479;-68
2022/06/12 04:31:57;;;;;;;12.85;4.47;;;;;;;11.74;100.00;102235.91;4952963;29;20058;-67
2022/06/12 04:34:29;;;;;;;7.97;4.15;;;;;;;11.77;100.00;102231.78;4953351;29;20496;-68
2022/06/12 04:37:08;;;;;;;12.77;4.60;;;;;;;11.80;100.00;102241.41;4953444;29;20029;-68
2022/06/12 04:39:35;;;;;;;10.45;4.82;;;;;;;11.86;100.00;102240.81;4953443;29;20448;-67
2022/06/12 04:42:01;;;;;;;7.53;3.80;;;;;;;11.91;100.00;102247.13;4952849;29;20168;-68
2022/06/12 04:44:27;;;;;;;8.95;4.40;;;;;;;11.95;100.00;102245.56;4953701;29;20163;-68
2022/06/12 04:46:56;;;;;;;9.73;4.38;;;;;;;12.01;100.00;102245.88;4953671;29;20187;-68
2022/06/12 04:49:25;;;;;;;11.27;4.22;;;;;;;12.05;100.00;102249.53;4952698;29;20049;-68
2022/06/12 04:51:53;;;;;;;10.32;4.68;;;;;;;12.09;100.00;102241.97;4953207;29;20383;-68
2022/06/12 04:54:19;;;;;;;13.68;4.38;;;;;;;12.13;100.00;102245.59;4953126;29;20034;-68
2022/06/12 04:56:44;;;;;;;11.70;4.45;;;;;;;12.17;100.00;102247.53;4953359;29;20380;-67
2022/06/12 04:59:13;;;;;;;10.68;4.32;;;;;;;12.24;100.00;102249.63;4952979;29;20027;-69
2022/06/12 05:01:38;;;;;;;9.57;4.15;;;;;;;12.29;100.00;102242.03;4952586;29;20190;-68
2022/06/12 05:04:05;;;;;;;8.27;4.63;;;;;;;12.36;100.00;102243.19;4952849;29;20109;-67
2022/06/12 05:06:32;;;;;;;11.10;4.40;;;;;;;12.38;100.00;102241.56;4952914;29;20034;-67
2022/06/12 05:08:57;;;;;;;9.23;5.20;;;;;;;12.43;100.00;102244.41;4953728;29;20114;-68
2022/06/12 05:11:23;;;;;;;11.57;4.43;;;;;;;12.53;100.00;102238.81;4935528;29;20185;-68
2022/06/12 05:13:49;;;;;;;8.02;4.70;;;;;;;12.63;100.00;102236.63;4953192;29;20023;-67
2022/06/12 05:16:22;;;;;;;11.35;4.45;;;;;;;12.73;100.00;102239.75;4953033;28;20030;-69
2022/06/12 05:18:48;;;;;;;13.77;4.45;;;;;;;12.80;100.00;102245.19;4951392;29;20491;-68
2022/06/12 05:21:13;;;;;;;11.77;4.43;;;;;;;12.88;100.00;102241.22;4951291;28;20051;-68
2022/06/12 05:23:39;;;;;;;10.60;4.10;;;;;;;12.99;99.75;102235.63;4952989;29;20198;-69
2022/06/12 05:26:06;;;;;;;9.32;4.47;;;;;;;13.06;98.99;102232.47;4953436;29;20031;-68
2022/06/12 05:28:31;;;;;;;7.75;4.10;;;;;;;13.13;99.53;102231.03;4967546;28;20027;-68
2022/06/12 05:30:57;;;;;;;10.18;5.13;;;;;;;13.23;98.35;102237.50;4951492;29;20027;-69
2022/06/12 05:33:22;;;;;;;11.63;4.25;;;;;;;13.33;98.33;102230.16;4952972;29;20038;-68
2022/06/12 05:35:47;;;;;;;11.02;5.00;;;;;;;13.47;98.39;102234.19;4935758;29;20507;-68
2022/06/12 05:38:13;;;;;;;10.82;4.22;;;;;;;13.57;98.09;102236.38;4952974;29;20031;-68
2022/06/12 05:40:40;;;;;;;10.50;4.03;;;;;;;13.69;97.54;102236.88;4966743;28;20957;-68
2022/06/12 05:43:09;;;;;;;10.07;4.00;;;;;;;13.78;96.49;102241.59;4952611;29;20027;-69
2022/06/12 05:45:37;;;;;;;10.90;4.97;;;;;;;13.87;95.70;102235.84;4952599;29;20034;-68
2022/06/12 05:48:12;;;;;;;10.55;4.35;;;;;;;13.97;96.29;102237.13;4951998;29;20435;-69
2022/06/12 05:50:48;;;;;;;15.23;5.18;;;;;;;14.11;95.54;102239.38;4953073;29;20023;-68
2022/06/12 05:53:14;;;;;;;11.27;4.45;;;;;;;14.23;95.10;102249.44;4951466;29;20027;-69
2022/06/12 05:55:40;;;;;;;12.13;4.68;;;;;;;14.35;95.00;102243.81;4952250;29;20061;-70
2022/06/12 05:58:08;;;;;;;15.30;5.55;;;;;;;14.46;94.13;102241.59;4951899;29;20035;-69
2022/06/12 06:00:34;;;;;;;13.60;4.72;;;;;;;14.59;94.29;102245.59;4966704;28;20514;-69
2022/06/12 06:03:00;;;;;;;16.85;5.20;;;;;;;14.60;94.46;102247.34;4966973;28;20059;-69
2022/06/12 06:05:26;;;;;;;16.38;5.15;;;;;;;14.76;93.93;102246.19;4952232;29;20038;-69
2022/06/12 06:07:52;;;;;;;14.50;5.63;;;;;;;14.91;93.73;102242.41;4951893;29;20031;-68
2022/06/12 06:10:24;;;;;;;14.32;5.40;;;;;;;15.02;93.40;102248.03;4952010;29;20051;-68
2022/06/12 06:12:50;;;;;;;12.13;4.35;;;;;;;15.23;93.96;102247.91;4951574;29;20031;-68
2022/06/12 06:15:16;;;;;;;12.30;4.65;;;;;;;15.40;93.01;102255.44;4951678;29;20054;-68
2022/06/12 06:17:41;;;;;;;16.75;5.85;;;;;;;15.55;92.57;102265.50;4951331;29;20059;-68
2022/06/12 06:20:09;;;;;;;14.55;5.18;;;;;;;15.65;92.20;102256.25;4951066;29;20062;-68
2022/06/12 06:22:34;;;;;;;18.67;5.57;;;;;;;15.85;92.08;102255.19;4951646;29;20490;-68
2022/06/12 06:25:00;;;;;;;11.75;4.70;;;;;;;16.03;91.95;102254.03;4951366;29;20035;-69
2022/06/12 06:27:25;;;;;;;17.08;5.18;;;;;;;16.15;90.49;102257.88;4951608;29;20062;-68
2022/06/12 06:29:51;;;;;;;15.98;5.30;;;;;;;16.26;90.26;102255.59;4951900;29;20392;-69
2022/06/12 06:32:16;;;;;;;11.88;4.43;;;;;;;16.38;90.21;102258.59;4950485;28;20469;-68
2022/06/12 06:34:42;;;;;;;14.13;5.25;;;;;;;16.52;90.17;102253.78;4951087;29;20074;-68
2022/06/12 06:37:10;;;;;;;14.30;4.60;;;;;;;16.70;90.30;102263.00;4951715;29;20051;-69
2022/06/12 06:39:38;;;;;;;17.42;6.03;;;;;;;16.77;89.91;102258.81;4951540;29;20027;-69
2022/06/12 06:42:05;;;;;;;13.35;5.22;;;;;;;16.85;89.34;102259.06;4950880;29;20365;-68
2022/06/12 06:47:14;;;;;;;15.80;5.43;;;;;;;17.03;90.13;102272.69;4951688;29;20396;-68
2022/06/12 06:49:39;;;;;;;13.40;4.75;;;;;;;17.16;88.57;102267.81;4951120;29;20034;-70
2022/06/12 06:52:05;;;;;;;15.13;5.10;;;;;;;17.21;88.23;102266.19;4950675;29;20031;-68
2022/06/12 06:54:31;;;;;;;14.38;4.55;;;;;;;17.34;88.17;102266.53;4950746;28;20031;-69
2022/06/12 06:56:56;;;;;;;15.93;5.10;;;;;;;17.38;87.48;102264.03;4950985;29;20015;-68
2022/06/12 06:59:22;;;;;;;18.90;6.22;;;;;;;17.49;86.91;102271.25;4950578;29;20022;-68
2022/06/12 07:01:47;;;;;;;19.70;6.55;;;;;;;17.71;88.11;102264.84;4950956;29;20058;-69
2022/06/12 07:04:12;;;;;;;16.08;5.32;;;;;;;17.85;87.60;102269.53;4950928;29;20038;-68
2022/06/12 07:06:38;;;;;;;16.95;5.82;;;;;;;17.93;85.67;102270.63;4950736;29;20146;-68
2022/06/12 07:09:04;;;;;;;15.70;5.60;;;;;;;17.87;84.47;102266.09;4950388;29;20074;-69
2022/06/12 07:11:30;;;;;;;17.40;5.60;;;;;;;17.96;84.77;102275.94;4951046;29;20023;-69
2022/06/12 07:13:58;;;;;;;15.07;5.35;;;;;;;18.02;83.66;102274.31;4951080;29;20023;-69
2022/06/12 07:16:25;;;;;;;15.52;5.32;;;;;;;18.14;83.75;102274.63;4950829;29;20035;-69
2022/06/12 07:18:51;;;;;;;19.20;6.55;;;;;;;18.23;84.02;102274.84;4950188;29;20035;-69
2022/06/12 07:21:16;;;;;;;18.33;5.70;;;;;;;18.47;84.91;102270.09;4950375;29;20047;-69
2022/06/12 07:23:42;;;;;;;16.75;6.30;;;;;;;18.47;80.68;102265.72;4950593;29;20538;-69
2022/06/12 07:26:14;;;;;;;14.93;5.93;;;;;;;18.63;80.17;102270.44;4950981;29;20460;-69
2022/06/12 07:28:40;;;;;;;15.07;5.68;;;;;;;18.74;79.93;102268.03;4949891;29;20031;-69
2022/06/12 07:31:07;;;;;;;17.85;5.85;;;;;;;18.98;81.74;102272.88;4950361;29;20034;-69
2022/06/12 07:33:34;;;;;;;14.60;5.80;;;;;;;19.25;79.86;102271.66;4950562;29;20041;-68
2022/06/12 07:36:00;;;;;;;10.82;4.18;;;;;;;19.38;79.36;102278.03;4950462;29;20343;-69
2022/06/12 07:38:27;;;;;;;17.30;5.82;;;;;;;19.34;78.53;102273.56;4950129;29;20383;-69
2022/06/12 07:40:57;;;;;;;16.40;5.32;;;;;;;19.23;75.40;102280.38;4950843;29;20031;-69
2022/06/12 07:43:23;;;;;;;16.45;4.78;;;;;;;19.18;75.73;102281.19;4949837;28;20114;-69
2022/06/12 07:45:51;;;;;;;16.75;5.47;;;;;;;19.47;77.35;102276.41;4949947;29;20062;-69
2022/06/12 07:48:18;;;;;;;15.88;5.78;;;;;;;19.65;74.48;102271.50;4950530;29;20151;-69
2022/06/12 07:50:44;;;;;;;14.75;5.22;;;;;;;19.79;74.80;102274.34;4950260;29;20395;-69
2022/06/12 07:53:12;;;;;;;17.40;5.13;;;;;;;19.83;74.16;102272.66;4950734;29;20054;-69
2022/06/12 07:55:38;;;;;;;13.95;4.93;;;;;;;19.94;74.11;102271.91;4950388;29;20031;-67
2022/06/12 07:58:04;;;;;;;14.60;5.18;;;;;;;20.18;74.51;102270.56;4949721;29;20027;-66
2022/06/12 08:00:29;;;;;;;12.73;5.50;;;;;;;20.36;74.62;102273.44;4949812;29;20042;-66
2022/06/12 08:02:55;;;;;;;13.90;5.20;;;;;;;20.56;71.34;102277.22;4950252;29;20030;-67
2022/06/12 08:05:21;;;;;;;14.90;5.50;;;;;;;20.68;69.13;102277.38;4950104;28;20038;-66
2022/06/12 08:07:47;;;;;;;13.98;5.03;;;;;;;20.92;71.03;102275.00;4950277;29;20028;-66
2022/06/12 08:10:14;;;;;;;15.75;5.18;;;;;;;20.92;69.48;102280.28;4949670;29;20401;-67
2022/06/12 08:12:43;;;;;;;13.50;5.47;;;;;;;20.82;69.71;102285.44;4949944;29;20424;-67
2022/06/12 08:15:14;;;;;;;11.25;5.38;;;;;;;20.66;68.37;102278.22;4950574;29;20027;-66
2022/06/12 08:17:39;;;;;;;11.15;4.70;;;;;;;20.59;68.02;102278.16;4950023;29;20035;-69
2022/06/12 08:22:50;;;;;;;12.95;4.85;;;;;;;20.48;68.79;102275.38;4950135;29;20171;-69
2022/06/12 08:25:16;;;;;;;10.68;4.97;;;;;;;20.48;72.00;102271.84;4949537;29;20032;-69
2022/06/12 08:27:41;;;;;;;14.80;5.43;;;;;;;20.50;70.39;102270.13;4949398;29;20468;-69
2022/06/12 08:30:08;;;;;;;11.85;5.07;;;;;;;20.43;65.87;102276.16;4949927;29;20404;-69
2022/06/12 08:32:35;;;;;;;14.85;4.32;;;;;;;20.56;65.97;102266.69;4949573;29;20046;-70
2022/06/12 08:35:06;;;;;;;13.40;4.43;;;;;;;20.68;68.20;102280.00;4949379;29;20041;-70
2022/06/12 08:37:38;;;;;;;14.75;5.47;;;;;;;20.62;69.00;102283.44;4949657;29;20031;-69
2022/06/12 08:40:09;;;;;;;11.48;5.05;;;;;;;20.51;67.22;102275.41;4949795;29;20031;-69
2022/06/12 08:42:56;;;;;;;13.25;5.53;;;;;;;20.33;67.51;102276.03;4949767;29;20070;-69
2022/06/12 08:45:26;;;;;;;12.13;4.57;;;;;;;20.28;68.44;102268.09;4949367;29;20046;-69
2022/06/12 08:48:00;;;;;;;13.10;5.22;;;;;;;20.24;68.90;102271.53;4949366;29;20030;-70
2022/06/12 08:50:46;;;;;;;11.27;4.53;;;;;;;20.25;68.36;102267.16;4949661;29;20033;-69
2022/06/12 08:53:23;;;;;;;11.90;4.32;;;;;;;20.34;66.88;102269.94;4949738;29;20023;-70
2022/06/12 08:56:26;;;;;;;11.82;5.13;;;;;;;20.36;68.43;102257.66;4950678;28;20059;-70
2022/06/12 08:59:15;;;;;;;10.55;5.38;;;;;;;20.31;72.30;102255.84;4944975;29;20098;-69
2022/06/12 09:01:42;;;;;;;14.57;4.90;;;;;;;20.32;70.49;102261.13;4952224;29;20039;-69
2022/06/12 09:04:16;;;;;;;11.32;4.63;;;;;;;20.44;72.52;102256.88;4953225;29;20030;-69
2022/06/12 09:06:45;;;;;;;10.75;4.40;;;;;;;20.72;68.47;102252.81;4952845;29;20055;-69
2022/06/12 09:10:03;;;;;;;15.27;4.93;;;;;;;20.86;66.38;102257.38;4953030;29;20023;-69
2022/06/12 09:12:38;;;;;;;12.02;4.78;;;;;;;20.96;65.67;102259.28;4951989;29;20031;-69
2022/06/12 09:15:22;;;;;;;9.23;3.83;;;;;;;21.14;62.30;102246.31;4952319;29;20035;-69
2022/06/12 09:18:05;;;;;;;10.55;4.15;;;;;;;21.45;63.68;102243.94;4952940;29;20114;-69
2022/06/12 09:20:36;;;;;;;9.52;4.30;;;;;;;21.70;61.65;102244.13;4952499;29;20075;-69
2022/06/12 09:23:12;;;;;;;11.98;4.45;;;;;;;21.82;62.54;102241.59;4952259;29;20499;-69
2022/06/12 09:26:00;;;;;;;14.98;5.10;;;;;;;21.74;63.65;102238.00;4952807;28;20453;-69
2022/06/12 09:28:49;;;;;;;9.50;3.78;;;;;;;21.62;59.78;102245.84;4952217;29;20114;-69
2022/06/12 09:31:34;;;;;;;11.23;3.72;;;;;;;21.87;59.53;102243.41;4952941;29;20543;-69
2022/06/12 09:34:18;;;;;;;9.40;3.60;;;;;;;22.27;63.30;102238.34;4952072;29;20039;-70
2022/06/12 09:40:05;;;;;;;10.90;4.05;;;;;;;22.63;58.81;102242.94;4951847;29;20035;-69
2022/06/12 09:43:00;;;;;;;7.55;3.00;;;;;;;22.73;55.36;102238.56;4952148;29;20031;-69
2022/06/12 09:45:50;;;;;;;10.68;4.22;;;;;;;22.73;57.40;102239.44;4951884;29;20051;-69
2022/06/12 09:48:37;;;;;;;9.95;3.42;;;;;;;22.72;56.53;102242.94;4952263;29;20016;-69
2022/06/12 09:51:05;;;;;;;8.32;3.13;;;;;;;22.87;55.77;102243.88;4952000;29;20030;-69
2022/06/12 09:54:08;;;;;;;9.60;2.97;;;;;;;22.94;56.02;102240.38;4951826;29;20043;-70
2022/06/12 09:56:58;;;;;;;8.60;3.15;;;;;;;22.74;54.40;102241.19;4952135;29;20602;-69
2022/06/12 09:59:34;;;;;;;9.57;4.15;;;;;;;22.63;54.70;102240.31;4951794;29;20061;-70
2022/06/12 10:02:10;;;;;;;9.82;4.07;;;;;;;22.49;56.70;102233.16;4951091;29;20138;-70
2022/06/12 10:04:51;;;;;;;7.60;3.47;;;;;;;22.39;58.91;102239.28;4951136;29;20221;-69
2022/06/12 10:07:24;;;;;;;;;;;;;;;22.35;60.08;102232.22;4951139;28;20034;-70
2022/06/12 10:09:56;;;;;;;10.02;3.75;;;;;;;;;;4952008;29;19961;-69
2022/06/12 10:12:29;;;;;;;8.02;3.40;;;;;;;22.42;58.71;102226.09;4951199;29;20081;-70
2022/06/12 10:15:04;;;;;;;10.32;3.90;;;;;;;22.38;57.21;102235.75;4951700;29;20032;-69
2022/06/12 10:17:44;;;;;;;10.82;4.63;;;;;;;22.38;55.39;102232.25;4951753;29;20089;-69
2022/06/12 10:20:14;;;;;;;9.65;3.92;;;;;;;22.35;55.94;102227.84;4951649;29;20045;-69
2022/06/12 10:22:46;;;;;;;10.18;3.55;;;;;;;22.36;57.30;102224.31;4951033;29;20118;-70
2022/06/12 10:25:40;;;;;;;9.82;3.80;;;;;;;22.36;55.15;102223.44;4951640;29;20424;-70
2022/06/12 10:28:20;;;;;;;9.43;3.97;;;;;;;22.38;58.57;102219.91;4951029;29;20101;-69
2022/06/12 10:31:04;;;;;;;8.98;3.75;;;;;;;22.35;55.37;102222.56;4951556;29;20381;-69
2022/06/12 10:33:43;;;;;;;9.32;3.83;;;;;;;22.39;57.60;102228.72;4951557;29;20043;-69
2022/06/12 10:36:32;;;;;;;11.00;3.85;;;;;;;22.33;55.14;102223.41;4951280;29;20060;-69
2022/06/12 10:39:05;;;;;;;11.35;3.97;;;;;;;22.23;57.89;102222.50;4950778;29;20027;-69
2022/06/12 10:41:31;;;;;;;9.73;3.80;;;;;;;22.03;56.65;102216.25;4950998;29;20741;-69
2022/06/12 10:43:57;;;;;;;9.32;3.40;;;;;;;21.78;58.43;102223.97;4951300;29;20027;-69
2022/06/12 10:46:32;;;;;;;7.65;3.40;;;;;;;21.78;58.00;102212.53;4950463;29;20046;-69
2022/06/12 10:49:06;;;;;;;10.18;3.05;;;;;;;22.02;57.90;102221.53;4951061;29;20031;-69
2022/06/12 10:51:38;;;;;;;12.82;3.60;;;;;;;22.35;58.11;102219.91;4965238;28;20171;-69
2022/06/12 10:54:19;;;;;;;8.43;3.83;;;;;;;22.63;55.19;102213.91;4950736;29;20031;-70
2022/06/12 10:57:08;;;;;;;10.85;3.35;;;;;;;22.77;53.67;102204.22;4951067;29;20027;-69
2022/06/12 10:59:47;;;;;;;9.98;3.30;;;;;;;23.01;55.06;102215.72;4950629;29;20027;-70
2022/06/12 11:02:38;;;;;;;7.05;2.65;;;;;;;23.04;50.65;102206.94;4950764;29;20028;-69
2022/06/12 11:05:29;;;;;;;9.90;2.90;;;;;;;23.25;53.94;102213.09;4949444;28;20542;-70
2022/06/12 11:08:12;;;;;;;12.27;3.38;;;;;;;23.25;52.52;102199.88;4951047;29;20031;-69
2022/06/12 11:10:50;;;;;;;7.45;3.00;;;;;;;23.34;53.12;102197.25;4950882;29;20174;-70
2022/06/12 11:13:52;;;;;;;8.93;2.85;;;;;;;23.66;53.15;102191.94;4950931;29;20054;-69
2022/06/12 11:16:38;;;;;;;8.15;2.45;;;;;;;24.02;58.16;102207.72;4950900;29;20578;-69
2022/06/12 11:19:22;;;;;;;7.63;2.50;;;;;;;24.23;56.34;102202.41;4950415;28;20033;-69
2022/06/12 11:21:58;;;;;;;9.00;3.00;;;;;;;24.14;51.84;102202.41;4950532;29;20047;-70
2022/06/12 11:24:31;;;;;;;7.97;2.72;;;;;;;23.97;54.56;102199.81;4950778;29;20038;-69
2022/06/12 11:27:13;;;;;;;10.98;3.28;;;;;;;23.65;53.80;102209.59;4950644;29;20495;-69
2022/06/12 11:30:03;;;;;;;9.00;3.80;;;;;;;23.29;53.80;102206.94;4950152;29;20046;-69
2022/06/12 11:32:48;;;;;;;8.45;3.15;;;;;;;23.17;55.46;102197.22;4950655;29;20031;-70
2022/06/12 11:35:37;;;;;;;6.80;2.58;;;;;;;22.91;56.52;102191.06;4950559;29;20110;-69
2022/06/12 11:38:40;;;;;;;9.57;2.80;;;;;;;22.76;55.64;102202.47;4950012;29;20086;-69
2022/06/12 11:41:08;;;;;;;6.35;2.88;;;;;;;;;;4950377;29;20511;-69
2022/06/12 11:43:43;;;;;;;7.82;2.67;;;;;;;22.46;54.24;102190.03;4950285;29;20031;-69
2022/06/12 11:46:15;;;;;;;10.45;2.63;;;;;;;22.67;57.98;102182.19;4950382;29;20032;-69
2022/06/12 11:49:02;;;;;;;12.00;2.97;;;;;;;22.77;54.55;102188.38;4950062;29;20035;-70
2022/06/12 11:51:37;;;;;;;9.05;2.50;;;;;;;22.78;52.38;102187.50;4949782;29;20047;-69
2022/06/12 11:54:24;;;;;;;7.50;2.55;;;;;;;22.70;56.72;102183.09;4950037;29;20035;-70
2022/06/12 11:57:10;;;;;;;6.63;2.40;;;;;;;22.70;53.46;102173.41;4950289;29;20082;-69
2022/06/12 12:00:14;;;;;;;7.15;2.15;;;;;;;22.94;55.55;102166.38;4950191;29;20066;-69
2022/06/12 12:03:09;;;;;;;5.72;2.55;;;;;;;23.17;52.91;102169.94;4928017;29;20032;-70
2022/06/12 12:05:45;;;;;;;8.80;2.80;;;;;;;23.39;51.02;102168.16;4949727;29;20035;-69
2022/06/12 12:08:24;;;;;;;8.10;2.20;;;;;;;23.51;51.84;102160.22;4950429;29;20507;-69